Time,TemperatureF,DewpointF,PressureIn,WindDirection,WindDirectionDegrees,WindSpeedMPH,WindSpeedGustMPH,Humidity,HourlyPrecipIn,Conditions,Clouds,dailyrainin,SoftwareType,DateUTC
2013-02-08 00:00:00,27.5,-1.4,29.75,ENE,72,2.0,6.0,28,0.00,CLR,CLR,0.00,WeatherDisplay:10.37,2013-02-08 05:00:00,
2013-02-08 00:01:00,27.5,-1.4,29.75,East,90,5.8,5.8,28,0.00,CLR,,0.00,WeatherDisplay:10.37,2013-02-08 05:01:00,
2013-02-08 00:03:00,27.5,-1.4,29.75,East,90,5.8,5.8,28,0.00,CLR,,0.00,WeatherDisplay:10.37,2013-02-08 05:03:00,
2013-02-08 00:08:00,27.5,-1.4,29.73,East,90,5.8,5.8,28,0.00,CLR,,0.00,WeatherDisplay:10.37,2013-02-08 05:08:00,
2013-02-08 00:13:00,27.3,-1.6,29.72,ESE,112,5.8,5.8,28,0.00,CLR,,0.00,WeatherDisplay:10.37,2013-02-08 05:13:00,
2013-02-08 00:18:00,27.1,-1.7,29.72,ENE,67,8.1,8.1,28,0.00,CLR,,0.00,WeatherDisplay:10.37,2013-02-08 05:18:00,
2013-02-08 00:23:00,27.3,-1.6,29.72,East,90,8.1,8.1,28,0.00,CLR,,0.00,WeatherDisplay:10.37,2013-02-08 05:23:00,
2013-02-08 00:28:00,27.1,-1.7,29.73,East,90,8.1,8.1,28,0.00,CLR,,0.00,WeatherDisplay:10.37,2013-02-08 05:28:00,
2013-02-08 00:33:00,27.0,-1.9,29.72,NE,45,8.1,8.1,28,0.00,CLR,,0.00,WeatherDisplay:10.37,2013-02-08 05:33:00,
2013-02-08 00:38:00,27.0,-1.9,29.72,SE,135,8.1,8.1,28,0.00,CLR,,0.00,WeatherDisplay:10.37,2013-02-08 05:38:00,
2013-02-08 00:43:00,27.1,-1.7,29.71,ENE,67,8.1,8.1,28,0.00,CLR,,0.00,WeatherDisplay:10.37,2013-02-08 05:43:00,
2013-02-08 00:48:00,27.0,-1.9,29.69,ESE,112,8.1,8.1,28,0.00,CLR,,0.00,WeatherDisplay:10.37,2013-02-08 05:48:00,
2013-02-08 00:53:00,27.0,-1.9,29.70,East,90,8.1,8.1,28,0.00,CLR,,0.00,WeatherDisplay:10.37,2013-02-08 05:53:00,
2013-02-08 00:58:00,27.0,-1.9,29.70,NE,45,8.1,8.1,28,0.00,CLR,,0.00,WeatherDisplay:10.37,2013-02-08 05:58:00,
2013-02-08 01:03:00,26.8,-2.0,29.70,East,90,8.1,8.1,28,0.00,CLR,,0.00,WeatherDisplay:10.37,2013-02-08 06:03:00,
2013-02-08 01:08:00,26.8,-2.0,29.70,NE,45,5.5,5.5,28,0.00,CLR,,0.00,WeatherDisplay:10.37,2013-02-08 06:08:00,
2013-02-08 01:13:00,26.8,-2.0,29.69,NE,45,5.8,5.8,28,0.00,CLR,,0.00,WeatherDisplay:10.37,2013-02-08 06:13:00,
2013-02-08 01:18:00,27.0,-1.9,29.68,NW,315,5.8,5.8,28,0.00,CLR,,0.00,WeatherDisplay:10.37,2013-02-08 06:18:00,
2013-02-08 01:23:00,27.0,-1.9,29.68,NE,45,5.8,5.8,28,0.00,CLR,,0.00,WeatherDisplay:10.37,2013-02-08 06:23:00,
2013-02-08 01:28:00,27.0,-1.9,29.69,East,90,6.7,6.7,28,0.00,CLR,,0.00,WeatherDisplay:10.37,2013-02-08 06:28:00,
2013-02-08 01:33:00,27.0,-1.9,29.69,East,90,6.9,6.9,28,0.00,CLR,,0.00,WeatherDisplay:10.37,2013-02-08 06:33:00,
2013-02-08 01:38:00,26.8,-2.0,29.69,NE,45,6.9,6.9,28,0.00,CLR,,0.00,WeatherDisplay:10.37,2013-02-08 06:38:00,
2013-02-08 01:43:00,26.8,-2.0,29.68,NE,45,6.9,6.9,28,0.00,CLR,,0.00,WeatherDisplay:10.37,2013-02-08 06:43:00,
2013-02-08 01:48:00,26.8,-2.0,29.67,East,90,7.3,7.3,28,0.00,CLR,,0.00,WeatherDisplay:10.37,2013-02-08 06:48:00,
2013-02-08 01:53:00,26.8,-2.0,29.67,ENE,67,7.3,7.3,28,0.00,CLR,,0.00,WeatherDisplay:10.37,2013-02-08 06:53:00,
2013-02-08 01:59:00,27.0,-1.9,29.67,East,90,7.3,7.3,28,0.00,CLR,,0.00,WeatherDisplay:10.37,2013-02-08 06:59:00,
2013-02-08 02:04:00,27.0,-1.9,29.67,NE,45,7.3,7.3,28,0.00,CLR,,0.00,WeatherDisplay:10.37,2013-02-08 07:04:00,
2013-02-08 02:09:00,27.0,-1.9,29.68,East,90,4.7,4.7,28,0.00,CLR,,0.00,WeatherDisplay:10.37,2013-02-08 07:09:00,
2013-02-08 02:14:00,27.0,-1.9,29.67,NE,45,5.8,5.8,28,0.00,CLR,,0.00,WeatherDisplay:10.37,2013-02-08 07:14:00,
2013-02-08 02:19:00,27.0,-1.9,29.67,East,90,5.8,5.8,28,0.00,CLR,,0.00,WeatherDisplay:10.37,2013-02-08 07:19:00,
2013-02-08 02:24:00,27.0,-1.9,29.66,ENE,67,5.8,5.8,28,0.00,CLR,,0.00,WeatherDisplay:10.37,2013-02-08 07:24:00,
2013-02-08 02:29:00,27.0,-1.9,29.66,ENE,67,5.8,5.8,28,0.00,CLR,,0.00,WeatherDisplay:10.37,2013-02-08 07:29:00,
2013-02-08 02:34:00,27.0,-1.9,29.66,NE,45,5.8,5.8,28,0.00,CLR,,0.00,WeatherDisplay:10.37,2013-02-08 07:34:00,
2013-02-08 02:39:00,27.0,-1.9,29.67,ENE,67,6.1,6.1,28,0.00,CLR,,0.00,WeatherDisplay:10.37,2013-02-08 07:39:00,
2013-02-08 02:44:00,27.0,-1.9,29.67,ENE,67,6.1,6.1,28,0.00,CLR,,0.00,WeatherDisplay:10.37,2013-02-08 07:44:00,
2013-02-08 02:49:00,26.8,-2.0,29.67,NE,45,6.9,6.9,28,0.00,CLR,,0.00,WeatherDisplay:10.37,2013-02-08 07:49:00,
2013-02-08 02:54:00,27.0,-1.9,29.67,ENE,67,6.9,6.9,28,0.00,CLR,,0.00,WeatherDisplay:10.37,2013-02-08 07:54:00,
2013-02-08 02:59:00,27.0,-1.9,29.66,NNE,22,6.9,6.9,28,0.00,CLR,,0.00,WeatherDisplay:10.37,2013-02-08 07:59:00,
2013-02-08 03:04:00,27.0,-1.9,29.66,NNE,22,6.9,6.9,28,0.00,CLR,,0.00,WeatherDisplay:10.37,2013-02-08 08:04:00,
2013-02-08 03:09:00,27.1,-1.7,29.66,NNE,22,5.1,5.1,28,0.00,CLR,,0.00,WeatherDisplay:10.37,2013-02-08 08:09:00,
2013-02-08 03:14:00,27.1,-1.7,29.67,North,0,5.1,5.1,28,0.00,CLR,,0.00,WeatherDisplay:10.37,2013-02-08 08:14:00,
2013-02-08 03:19:00,27.1,-1.7,29.67,North,0,5.1,5.1,28,0.00,CLR,,0.00,WeatherDisplay:10.37,2013-02-08 08:19:00,
2013-02-08 03:24:00,27.1,-1.7,29.68,NE,45,5.1,5.1,28,0.00,CLR,,0.00,WeatherDisplay:10.37,2013-02-08 08:24:00,
2013-02-08 03:29:00,27.1,-1.7,29.68,NE,45,5.1,5.1,28,0.00,CLR,,0.00,WeatherDisplay:10.37,2013-02-08 08:29:00,
2013-02-08 03:34:00,27.1,-1.7,29.66,North,0,5.1,5.1,28,0.00,CLR,,0.00,WeatherDisplay:10.37,2013-02-08 08:34:00,
2013-02-08 03:39:00,27.1,-1.7,29.66,NNE,22,5.1,5.1,28,0.00,CLR,,0.00,WeatherDisplay:10.37,2013-02-08 08:39:00,
2013-02-08 03:44:00,27.3,-1.6,29.66,NNW,337,5.1,5.1,28,0.00,CLR,,0.00,WeatherDisplay:10.37,2013-02-08 08:44:00,
2013-02-08 03:49:00,27.5,-1.4,29.68,NNW,337,5.1,5.1,28,0.00,CLR,,0.00,WeatherDisplay:10.37,2013-02-08 08:49:00,
2013-02-08 03:54:00,27.5,-1.4,29.68,NNW,337,5.1,5.1,28,0.00,CLR,,0.00,WeatherDisplay:10.37,2013-02-08 08:54:00,
2013-02-08 03:59:00,27.7,-1.2,29.69,NNE,22,5.1,5.1,28,0.00,CLR,,0.00,WeatherDisplay:10.37,2013-02-08 08:59:00,
2013-02-08 04:04:00,27.7,-1.2,29.69,NE,45,5.1,5.1,28,0.00,CLR,,0.00,WeatherDisplay:10.37,2013-02-08 09:04:00,
2013-02-08 04:09:00,27.5,-1.4,29.67,North,0,2.6,2.6,28,0.00,CLR,,0.00,WeatherDisplay:10.37,2013-02-08 09:09:00,
2013-02-08 04:14:00,27.5,-1.4,29.67,North,0,2.8,2.8,28,0.00,CLR,,0.00,WeatherDisplay:10.37,2013-02-08 09:14:00,
2013-02-08 04:19:00,27.5,-1.4,29.68,NNE,22,2.8,2.8,28,0.00,CLR,,0.00,WeatherDisplay:10.37,2013-02-08 09:19:00,
2013-02-08 04:24:00,27.5,-1.4,29.68,North,0,3.6,3.6,28,0.00,CLR,,0.00,WeatherDisplay:10.37,2013-02-08 09:24:00,
2013-02-08 04:29:00,27.5,-1.4,29.69,North,0,3.6,3.6,28,0.00,CLR,,0.00,WeatherDisplay:10.37,2013-02-08 09:29:00,
2013-02-08 04:34:00,27.7,-1.2,29.68,North,0,3.6,3.6,28,0.00,CLR,,0.00,WeatherDisplay:10.37,2013-02-08 09:34:00,
2013-02-08 04:39:00,27.7,-1.2,29.68,North,0,3.6,3.6,28,0.00,CLR,,0.00,WeatherDisplay:10.37,2013-02-08 09:39:00,
2013-02-08 04:44:00,27.7,-1.2,29.68,North,0,4.7,4.7,28,0.00,CLR,,0.00,WeatherDisplay:10.37,2013-02-08 09:44:00,
2013-02-08 04:49:00,27.7,-1.2,29.67,NNE,22,4.9,4.9,28,0.00,CLR,,0.00,WeatherDisplay:10.37,2013-02-08 09:49:00,
2013-02-08 04:54:00,27.7,-1.2,29.68,NE,45,4.9,4.9,28,0.00,CLR,,0.00,WeatherDisplay:10.37,2013-02-08 09:54:00,
2013-02-08 04:59:00,27.5,-1.4,29.68,North,0,5.8,5.8,28,0.00,CLR,,0.00,WeatherDisplay:10.37,2013-02-08 09:59:00,
2013-02-08 05:04:00,27.5,-1.4,29.69,North,0,5.8,5.8,28,0.00,CLR,,0.00,WeatherDisplay:10.37,2013-02-08 10:04:00,
2013-02-08 05:09:00,27.5,-1.4,29.70,North,0,4.9,4.9,28,0.00,CLR,,0.00,WeatherDisplay:10.37,2013-02-08 10:09:00,
2013-02-08 05:14:00,27.5,-1.4,29.69,NNE,22,4.9,4.9,28,0.00,CLR,,0.00,WeatherDisplay:10.37,2013-02-08 10:14:00,
2013-02-08 05:19:00,27.3,-1.6,29.68,North,0,5.1,5.1,28,0.00,CLR,,0.00,WeatherDisplay:10.37,2013-02-08 10:19:00,
2013-02-08 05:24:00,27.1,-1.7,29.68,NNW,337,5.1,5.1,28,0.00,CLR,,0.00,WeatherDisplay:10.37,2013-02-08 10:24:00,
2013-02-08 05:29:00,27.1,-1.7,29.69,North,0,5.8,5.8,28,0.00,CLR,,0.00,WeatherDisplay:10.37,2013-02-08 10:29:00,
2013-02-08 05:34:00,27.0,-1.9,29.70,North,0,5.8,5.8,28,0.00,CLR,,0.00,WeatherDisplay:10.37,2013-02-08 10:34:00,
2013-02-08 05:39:00,26.8,-2.0,29.72,NE,45,5.8,5.8,28,0.00,CLR,,0.00,WeatherDisplay:10.37,2013-02-08 10:39:00,
2013-02-08 05:44:00,26.8,-2.0,29.71,North,0,5.8,5.8,28,0.00,CLR,,0.00,WeatherDisplay:10.37,2013-02-08 10:44:00,
2013-02-08 05:49:00,26.6,-2.2,29.71,North,0,5.8,5.8,28,0.00,CLR,,0.00,WeatherDisplay:10.37,2013-02-08 10:49:00,
2013-02-08 05:54:00,26.6,-2.2,29.71,NNE,22,5.8,5.8,28,0.00,CLR,,0.00,WeatherDisplay:10.37,2013-02-08 10:54:00,
2013-02-08 05:59:00,26.6,-2.2,29.71,NE,45,5.8,5.8,28,0.00,CLR,,0.00,WeatherDisplay:10.37,2013-02-08 10:59:00,
2013-02-08 06:04:00,26.6,-2.2,29.71,North,0,5.8,5.8,28,0.00,CLR,,0.00,WeatherDisplay:10.37,2013-02-08 11:04:00,
2013-02-08 06:09:00,26.6,-2.2,29.72,North,0,5.8,5.8,28,0.00,CLR,,0.00,WeatherDisplay:10.37,2013-02-08 11:09:00,
2013-02-08 06:14:00,26.4,-2.3,29.73,NNW,337,5.8,5.8,28,0.00,CLR,,0.00,WeatherDisplay:10.37,2013-02-08 11:14:00,
2013-02-08 06:19:00,26.6,-2.2,29.73,North,0,5.8,5.8,28,0.00,CLR,,0.00,WeatherDisplay:10.37,2013-02-08 11:19:00,
2013-02-08 06:24:00,26.6,-2.2,29.73,North,0,5.8,5.8,28,0.00,CLR,,0.00,WeatherDisplay:10.37,2013-02-08 11:24:00,
2013-02-08 06:29:00,26.6,-2.2,29.73,North,0,5.8,5.8,28,0.00,CLR,,0.00,WeatherDisplay:10.37,2013-02-08 11:29:00,
2013-02-08 06:34:00,26.6,-2.2,29.73,NNW,337,5.8,5.8,28,0.00,CLR,,0.00,WeatherDisplay:10.37,2013-02-08 11:34:00,
2013-02-08 06:39:00,26.6,-2.2,29.74,NNW,337,5.8,5.8,28,0.00,CLR,,0.00,WeatherDisplay:10.37,2013-02-08 11:39:00,
2013-02-08 06:44:00,26.4,-2.3,29.75,NNW,337,6.3,6.3,28,0.00,CLR,,0.00,WeatherDisplay:10.37,2013-02-08 11:44:00,
2013-02-08 06:49:00,26.4,-2.3,29.75,NNW,337,6.3,6.3,28,0.00,CLR,,0.00,WeatherDisplay:10.37,2013-02-08 11:49:00,
2013-02-08 06:54:00,26.2,-2.5,29.75,NNE,22,7.1,7.1,28,0.00,CLR,,0.00,WeatherDisplay:10.37,2013-02-08 11:54:00,
2013-02-08 06:59:00,24.6,-3.9,29.74,NNW,337,7.1,7.1,28,0.00,CLR,,0.00,WeatherDisplay:10.37,2013-02-08 11:59:00,
2013-02-08 07:04:00,24.6,-3.9,29.75,NNW,337,7.1,7.1,28,0.00,CLR,,0.00,WeatherDisplay:10.37,2013-02-08 12:04:00,
2013-02-08 07:09:00,24.8,-3.8,29.76,North,0,5.1,5.1,28,0.00,CLR,,0.00,WeatherDisplay:10.37,2013-02-08 12:09:00,
2013-02-08 07:14:00,24.8,-3.8,29.77,North,0,5.8,5.8,28,0.00,CLR,,0.00,WeatherDisplay:10.37,2013-02-08 12:14:00,
2013-02-08 07:19:00,25.0,-3.6,29.78,North,0,5.8,5.8,28,0.00,CLR,,0.00,WeatherDisplay:10.37,2013-02-08 12:19:00,
2013-02-08 07:24:00,25.0,-3.6,29.79,North,0,5.9,5.9,28,0.00,CLR,,0.00,WeatherDisplay:10.37,2013-02-08 12:24:00,
2013-02-08 07:29:00,25.0,-3.6,29.79,NNE,22,5.9,5.9,28,0.00,CLR,,0.00,WeatherDisplay:10.37,2013-02-08 12:29:00,
2013-02-08 07:34:00,25.2,-3.4,29.79,NE,45,6.1,6.1,28,0.00,CLR,,0.00,WeatherDisplay:10.37,2013-02-08 12:34:00,
2013-02-08 07:39:00,25.2,-3.4,29.78,NNE,22,6.1,6.1,28,0.00,CLR,,0.00,WeatherDisplay:10.37,2013-02-08 12:39:00,
2013-02-08 07:44:00,25.2,-3.4,29.79,NNW,337,6.1,6.1,28,0.00,CLR,,0.00,WeatherDisplay:10.37,2013-02-08 12:44:00,
2013-02-08 07:49:00,25.2,-3.4,29.81,North,0,6.9,6.9,28,0.00,CLR,,0.00,WeatherDisplay:10.37,2013-02-08 12:49:00,
2013-02-08 07:54:00,25.2,-3.4,29.81,NNW,337,6.9,6.9,28,0.00,CLR,,0.00,WeatherDisplay:10.37,2013-02-08 12:54:00,
2013-02-08 07:59:00,25.2,-3.4,29.81,NNW,337,6.9,6.9,28,0.00,CLR,,0.00,WeatherDisplay:10.37,2013-02-08 12:59:00,
2013-02-08 08:04:00,25.2,-3.4,29.81,NNW,337,6.9,6.9,28,0.00,CLR,,0.00,WeatherDisplay:10.37,2013-02-08 13:04:00,
2013-02-08 08:09:00,25.2,-3.4,29.81,NNW,337,6.3,6.3,28,0.00,CLR,,0.00,WeatherDisplay:10.37,2013-02-08 13:09:00,
2013-02-08 08:14:00,25.2,-3.4,29.81,North,0,7.9,7.9,28,0.00,CLR,,0.00,WeatherDisplay:10.37,2013-02-08 13:14:00,
2013-02-08 08:19:00,25.2,-3.4,29.83,NE,45,9.2,9.2,28,0.00,CLR,,0.00,WeatherDisplay:10.37,2013-02-08 13:19:00,
2013-02-08 08:24:00,25.0,-3.6,29.83,North,0,9.2,9.2,28,0.00,CLR,,0.00,WeatherDisplay:10.37,2013-02-08 13:24:00,
2013-02-08 08:29:00,25.0,-3.6,29.84,North,0,9.2,9.2,28,0.00,CLR,,0.00,WeatherDisplay:10.37,2013-02-08 13:29:00,
2013-02-08 08:34:00,25.0,-3.6,29.83,NNE,22,9.2,9.2,28,0.00,CLR,,0.00,WeatherDisplay:10.37,2013-02-08 13:34:00,
2013-02-08 08:39:00,25.0,-3.6,29.83,NNW,337,9.2,9.2,28,0.00,CLR,,0.00,WeatherDisplay:10.37,2013-02-08 13:39:00,
2013-02-08 08:44:00,24.8,-3.8,29.83,NE,45,9.2,9.2,28,0.00,CLR,,0.00,WeatherDisplay:10.37,2013-02-08 13:44:00,
2013-02-08 08:50:00,24.8,-3.8,29.83,North,8,3.0,9.0,28,0.00,CLR,CLR,0.00,WeatherDisplay:10.37,2013-02-08 13:50:00,
2013-02-08 08:55:00,25.0,-3.6,29.84,NNW,337,9.2,9.2,28,0.00,CLR,,0.00,WeatherDisplay:10.37,2013-02-08 13:55:00,
2013-02-08 09:00:00,25.2,-3.4,29.86,NE,45,9.2,9.2,28,0.00,CLR,,0.00,WeatherDisplay:10.37,2013-02-08 14:00:00,
2013-02-08 09:05:00,25.3,-3.3,29.86,NE,45,9.2,9.2,28,0.00,CLR,,0.00,WeatherDisplay:10.37,2013-02-08 14:05:00,
2013-02-08 09:10:00,25.5,-3.1,29.86,NNE,22,6.3,6.3,28,0.00,CLR,,0.00,WeatherDisplay:10.37,2013-02-08 14:10:00,
2013-02-08 09:16:00,25.7,-3.0,29.85,NNW,337,8.1,8.1,28,0.00,CLR,,0.00,WeatherDisplay:10.37,2013-02-08 14:16:00,
2013-02-08 09:21:00,26.1,-2.7,29.85,North,0,9.2,9.2,28,0.00,CLR,,0.00,WeatherDisplay:10.37,2013-02-08 14:21:00,
2013-02-08 09:26:00,26.1,-2.7,29.87,North,0,9.2,9.2,28,0.00,CLR,,0.00,WeatherDisplay:10.37,2013-02-08 14:26:00,
2013-02-08 09:31:00,26.1,-2.7,29.88,North,0,9.2,9.2,28,0.00,CLR,,0.00,WeatherDisplay:10.37,2013-02-08 14:31:00,
2013-02-08 09:36:00,25.7,-3.0,29.89,NNE,22,9.2,9.2,28,0.00,CLR,,0.00,WeatherDisplay:10.37,2013-02-08 14:36:00,
2013-02-08 09:41:00,25.9,-2.8,29.89,NNW,337,9.2,9.2,28,0.00,CLR,,0.00,WeatherDisplay:10.37,2013-02-08 14:41:00,
2013-02-08 09:47:00,25.7,-3.0,29.87,North,0,9.2,9.2,28,0.00,CLR,,0.00,WeatherDisplay:10.37,2013-02-08 14:47:00,
2013-02-08 09:52:00,22.6,-5.6,29.87,NNW,337,9.2,9.2,28,0.00,CLR,,0.00,WeatherDisplay:10.37,2013-02-08 14:52:00,
2013-02-08 09:57:00,22.8,-5.5,29.89,NNE,22,9.2,9.2,28,0.00,CLR,,0.00,WeatherDisplay:10.37,2013-02-08 14:57:00,
2013-02-08 10:02:00,22.8,-5.5,29.90,NNW,337,9.2,9.2,28,0.00,CLR,,0.00,WeatherDisplay:10.37,2013-02-08 15:02:00,
2013-02-08 10:07:00,22.8,-5.5,29.90,NNW,337,5.8,5.8,28,0.00,CLR,,0.00,WeatherDisplay:10.37,2013-02-08 15:07:00,
2013-02-08 10:13:00,22.8,-5.5,29.91,North,0,6.1,6.1,28,0.00,CLR,,0.00,WeatherDisplay:10.37,2013-02-08 15:13:00,
2013-02-08 10:18:00,23.2,-5.2,29.90,North,0,6.1,6.1,28,0.00,CLR,,0.00,WeatherDisplay:10.37,2013-02-08 15:18:00,
2013-02-08 10:24:00,23.0,-5.3,29.90,NW,315,6.9,6.9,28,0.00,CLR,,0.00,WeatherDisplay:10.37,2013-02-08 15:24:00,
2013-02-08 10:29:00,23.0,-5.3,29.91,North,0,6.9,6.9,28,0.00,CLR,,0.00,WeatherDisplay:10.37,2013-02-08 15:29:00,
2013-02-08 10:34:00,23.0,-5.3,29.91,NNW,337,6.9,6.9,28,0.00,CLR,,0.00,WeatherDisplay:10.37,2013-02-08 15:34:00,
2013-02-08 10:39:00,23.0,-5.3,29.92,North,0,6.9,6.9,28,0.00,CLR,,0.00,WeatherDisplay:10.37,2013-02-08 15:39:00,
2013-02-08 10:44:00,23.0,-5.3,29.92,North,0,7.1,7.1,28,0.00,CLR,,0.00,WeatherDisplay:10.37,2013-02-08 15:44:00,
2013-02-08 10:49:00,22.6,-5.6,29.92,NNW,337,7.1,7.1,28,0.00,CLR,,0.00,WeatherDisplay:10.37,2013-02-08 15:49:00,
2013-02-08 10:54:00,23.0,-5.3,29.92,NNE,22,9.2,9.2,28,0.00,CLR,,0.00,WeatherDisplay:10.37,2013-02-08 15:54:00,
2013-02-08 10:59:00,22.8,-5.5,29.92,NNW,337,9.2,9.2,28,0.00,CLR,,0.00,WeatherDisplay:10.37,2013-02-08 15:59:00,
2013-02-08 11:04:00,22.8,-5.5,29.93,NNW,337,9.2,9.2,28,0.00,CLR,,0.00,WeatherDisplay:10.37,2013-02-08 16:04:00,
2013-02-08 11:09:00,22.8,-5.5,29.93,NNE,22,6.9,6.9,28,0.00,CLR,,0.00,WeatherDisplay:10.37,2013-02-08 16:09:00,
2013-02-08 11:14:00,23.0,-5.3,29.95,NNW,337,7.3,7.3,28,0.00,CLR,,0.00,WeatherDisplay:10.37,2013-02-08 16:14:00,
2013-02-08 11:19:00,23.0,-5.3,29.95,NW,315,7.3,7.3,28,0.00,CLR,,0.00,WeatherDisplay:10.37,2013-02-08 16:19:00,
2013-02-08 11:24:00,22.6,-5.6,29.95,North,0,8.1,8.1,28,0.00,CLR,,0.00,WeatherDisplay:10.37,2013-02-08 16:24:00,
2013-02-08 11:29:00,22.6,-5.6,29.95,North,0,8.1,8.1,28,0.00,CLR,,0.00,WeatherDisplay:10.37,2013-02-08 16:29:00,
2013-02-08 11:34:00,23.2,-5.2,29.95,North,0,9.2,9.2,28,0.00,CLR,,0.00,WeatherDisplay:10.37,2013-02-08 16:34:00,
2013-02-08 11:39:00,23.2,-5.2,29.95,NW,315,9.2,9.2,28,0.00,CLR,,0.00,WeatherDisplay:10.37,2013-02-08 16:39:00,
2013-02-08 11:44:00,23.5,-4.9,29.96,NNW,337,9.2,9.2,28,0.00,CLR,,0.00,WeatherDisplay:10.37,2013-02-08 16:44:00,
2013-02-08 11:49:00,23.2,-5.2,29.95,North,0,9.2,9.2,28,0.00,CLR,,0.00,WeatherDisplay:10.37,2013-02-08 16:49:00,
2013-02-08 11:54:00,23.0,-5.3,29.98,North,0,9.2,9.2,28,0.00,CLR,,0.00,WeatherDisplay:10.37,2013-02-08 16:54:00,
2013-02-08 11:59:00,22.6,-5.6,29.98,NNW,337,9.2,9.2,28,0.00,CLR,,0.00,WeatherDisplay:10.37,2013-02-08 16:59:00,
2013-02-08 12:04:00,26.1,-2.7,29.96,ENE,67,9.2,9.2,28,0.00,CLR,,0.00,WeatherDisplay:10.37,2013-02-08 17:04:00,
2013-02-08 12:09:00,22.8,-5.5,29.96,NW,315,7.1,7.1,28,0.00,CLR,,0.00,WeatherDisplay:10.37,2013-02-08 17:09:00,
2013-02-08 12:14:00,22.8,-5.5,29.98,NNW,337,7.3,7.3,28,0.00,CLR,,0.00,WeatherDisplay:10.37,2013-02-08 17:14:00,
2013-02-08 12:19:00,22.8,-5.5,29.98,NNW,337,7.3,7.3,28,0.00,CLR,,0.00,WeatherDisplay:10.37,2013-02-08 17:19:00,
2013-02-08 12:24:00,22.8,-5.5,29.98,NNW,337,7.3,7.3,28,0.00,CLR,,0.00,WeatherDisplay:10.37,2013-02-08 17:24:00,
2013-02-08 12:30:00,23.0,-5.3,29.98,North,351,8.0,8.0,28,0.00,CLR,CLR,0.00,WeatherDisplay:10.37,2013-02-08 17:30:00,
2013-02-08 12:35:00,22.8,-5.5,29.96,North,359,5.0,8.0,28,0.00,CLR,CLR,0.00,WeatherDisplay:10.37,2013-02-08 17:35:00,
2013-02-08 12:40:00,22.8,-5.5,29.95,NNW,345,6.0,8.0,28,0.00,CLR,CLR,0.00,WeatherDisplay:10.37,2013-02-08 17:40:00,
2013-02-08 12:45:00,22.8,-5.5,29.96,NNW,337,6.0,8.0,28,0.00,CLR,CLR,0.00,WeatherDisplay:10.37,2013-02-08 17:45:00,
2013-02-08 12:50:00,22.8,-5.5,29.96,NNW,337,6.0,8.0,28,0.00,CLR,CLR,0.00,WeatherDisplay:10.37,2013-02-08 17:50:00,
2013-02-08 12:55:00,22.8,-5.5,29.98,NNW,337,6.0,8.0,28,0.00,CLR,CLR,0.00,WeatherDisplay:10.37,2013-02-08 17:55:00,
2013-02-08 13:00:00,23.0,-5.3,29.98,NNW,337,9.0,9.0,28,0.00,CLR,CLR,0.00,WeatherDisplay:10.37,2013-02-08 18:00:00,
2013-02-08 13:05:00,22.8,-5.5,29.98,North,353,7.0,9.0,28,0.00,CLR,CLR,0.00,WeatherDisplay:10.37,2013-02-08 18:05:00,
2013-02-08 13:10:00,22.6,-5.6,29.96,NNE,12,6.0,7.0,28,0.00,CLR,CLR,0.00,WeatherDisplay:10.37,2013-02-08 18:10:00,
2013-02-08 13:15:00,25.9,-2.8,29.96,North,4,5.0,7.0,28,0.00,CLR,CLR,0.00,WeatherDisplay:10.37,2013-02-08 18:15:00,
2013-02-08 13:20:00,25.7,-3.0,29.98,North,0,6.9,6.9,28,0.00,CLR,,0.00,WeatherDisplay:10.37,2013-02-08 18:20:00,
2013-02-08 13:26:00,25.5,-3.1,29.99,NNW,337,8.1,8.1,28,0.00,CLR,,0.00,WeatherDisplay:10.37,2013-02-08 18:26:00,
2013-02-08 13:31:00,25.7,-3.0,29.99,NNW,337,8.1,8.1,28,0.00,CLR,,0.00,WeatherDisplay:10.37,2013-02-08 18:31:00,
2013-02-08 13:37:00,25.9,-2.8,29.99,NW,315,8.1,8.1,28,0.00,CLR,,0.00,WeatherDisplay:10.37,2013-02-08 18:37:00,
2013-02-08 13:42:00,26.1,-2.7,29.99,North,0,8.1,8.1,28,0.00,CLR,,0.00,WeatherDisplay:10.37,2013-02-08 18:42:00,
2013-02-08 13:48:00,26.1,-2.7,29.99,NW,315,8.1,8.1,28,0.00,CLR,,0.00,WeatherDisplay:10.37,2013-02-08 18:48:00,
2013-02-08 13:53:00,25.7,-3.0,29.99,NW,315,8.1,8.1,28,0.00,CLR,,0.00,WeatherDisplay:10.37,2013-02-08 18:53:00,
2013-02-08 13:58:00,25.7,-3.0,29.99,NNW,337,8.1,8.1,28,0.00,CLR,,0.00,WeatherDisplay:10.37,2013-02-08 18:58:00,
2013-02-08 14:03:00,25.5,-3.1,29.99,NW,315,8.1,8.1,28,0.00,CLR,,0.00,WeatherDisplay:10.37,2013-02-08 19:03:00,
2013-02-08 14:08:00,25.5,-3.1,30.00,North,0,6.7,6.7,28,0.00,CLR,,0.00,WeatherDisplay:10.37,2013-02-08 19:08:00,
2013-02-08 14:13:00,25.3,-3.3,30.00,WNW,292,6.9,6.9,28,0.00,CLR,,0.00,WeatherDisplay:10.37,2013-02-08 19:13:00,
2013-02-08 14:18:00,25.3,-3.3,29.99,NW,315,6.9,6.9,28,0.00,CLR,,0.00,WeatherDisplay:10.37,2013-02-08 19:18:00,
2013-02-08 14:23:00,25.5,-3.1,29.99,NNW,337,6.9,6.9,28,0.00,CLR,,0.00,WeatherDisplay:10.37,2013-02-08 19:23:00,
2013-02-08 14:28:00,25.2,-3.4,29.99,NNW,337,6.9,6.9,28,0.00,CLR,,0.00,WeatherDisplay:10.37,2013-02-08 19:28:00,
2013-02-08 14:34:00,25.0,-3.6,30.00,NNW,337,6.9,6.9,28,0.00,CLR,,0.00,WeatherDisplay:10.37,2013-02-08 19:34:00,
2013-02-08 14:39:00,25.3,-3.3,30.00,North,0,6.9,6.9,28,0.00,CLR,,0.00,WeatherDisplay:10.37,2013-02-08 19:39:00,
2013-02-08 14:44:00,25.5,-3.1,30.00,NNE,22,6.9,6.9,28,0.00,CLR,,0.00,WeatherDisplay:10.37,2013-02-08 19:44:00,
2013-02-08 14:49:00,25.5,-3.1,30.00,NNW,337,6.9,6.9,28,0.00,CLR,,0.00,WeatherDisplay:10.37,2013-02-08 19:49:00,
2013-02-08 14:54:00,25.5,-3.1,29.99,NNW,337,6.9,6.9,28,0.00,CLR,,0.00,WeatherDisplay:10.37,2013-02-08 19:54:00,
2013-02-08 14:59:00,25.2,-3.4,30.00,NNE,22,6.9,6.9,28,0.00,CLR,,0.00,WeatherDisplay:10.37,2013-02-08 19:59:00,
2013-02-08 15:04:00,25.0,-3.6,30.00,North,0,6.9,6.9,28,0.00,CLR,,0.00,WeatherDisplay:10.37,2013-02-08 20:04:00,
2013-02-08 15:10:00,24.8,-3.8,30.01,North,0,6.0,7.0,28,0.00,CLR,CLR,0.00,WeatherDisplay:10.37,2013-02-08 20:10:00,
2013-02-08 15:15:00,24.8,-3.8,30.02,North,0,8.0,8.0,28,0.00,CLR,CLR,0.00,WeatherDisplay:10.37,2013-02-08 20:15:00,
2013-02-08 15:20:00,24.8,-3.8,30.01,NNW,337,8.1,8.1,28,0.00,CLR,,0.00,WeatherDisplay:10.37,2013-02-08 20:20:00,
2013-02-08 15:25:00,26.8,-2.0,30.01,North,0,8.1,8.1,28,0.00,CLR,,0.00,WeatherDisplay:10.37,2013-02-08 20:25:00,
2013-02-08 15:30:00,27.0,-1.9,30.00,North,0,8.1,8.1,28,0.00,CLR,,0.00,WeatherDisplay:10.37,2013-02-08 20:30:00,
2013-02-08 15:35:00,27.0,-1.9,30.01,North,0,8.1,8.1,28,0.00,CLR,,0.00,WeatherDisplay:10.37,2013-02-08 20:35:00,
2013-02-08 15:40:00,27.0,-1.9,30.02,NNW,337,8.1,8.1,28,0.00,CLR,,0.00,WeatherDisplay:10.37,2013-02-08 20:40:00,
2013-02-08 15:45:00,27.0,-1.9,30.02,NNW,337,8.1,8.1,28,0.00,CLR,,0.00,WeatherDisplay:10.37,2013-02-08 20:45:00,
2013-02-08 15:50:00,27.0,-1.9,30.03,North,0,8.1,8.1,28,0.00,CLR,,0.00,WeatherDisplay:10.37,2013-02-08 20:50:00,
2013-02-08 15:55:00,27.0,-1.9,30.03,NNW,337,8.1,8.1,28,0.00,CLR,,0.00,WeatherDisplay:10.37,2013-02-08 20:55:00,
2013-02-08 16:00:00,27.1,-1.7,30.02,NNW,337,8.1,8.1,28,0.00,CLR,,0.00,WeatherDisplay:10.37,2013-02-08 21:00:00,
2013-02-08 16:05:00,27.1,-1.7,30.01,NNW,337,9.2,9.2,28,0.00,CLR,,0.00,WeatherDisplay:10.37,2013-02-08 21:05:00,
2013-02-08 16:10:00,27.0,-1.9,30.02,NNW,337,9.2,9.2,28,0.00,CLR,,0.00,WeatherDisplay:10.37,2013-02-08 21:10:00,
2013-02-08 16:15:00,26.8,-2.0,30.03,NNW,337,9.2,9.2,28,0.00,CLR,,0.00,WeatherDisplay:10.37,2013-02-08 21:15:00,
2013-02-08 16:20:00,26.6,-2.2,30.04,North,0,9.2,9.2,28,0.00,CLR,,0.00,WeatherDisplay:10.37,2013-02-08 21:20:00,
2013-02-08 16:25:00,26.4,-2.3,30.04,NNW,337,9.2,9.2,28,0.00,CLR,,0.00,WeatherDisplay:10.37,2013-02-08 21:25:00,
2013-02-08 16:30:00,26.6,-2.2,30.03,NNE,22,9.2,9.2,28,0.00,CLR,,0.00,WeatherDisplay:10.37,2013-02-08 21:30:00,
2013-02-08 16:35:00,26.6,-2.2,30.02,NNW,337,9.2,9.2,28,0.00,CLR,,0.00,WeatherDisplay:10.37,2013-02-08 21:35:00,
2013-02-08 16:40:00,26.4,-2.3,30.03,NNW,337,9.2,9.2,28,0.00,CLR,,0.00,WeatherDisplay:10.37,2013-02-08 21:40:00,
2013-02-08 16:45:00,24.8,-3.8,30.03,NNW,337,9.2,9.2,28,0.00,CLR,,0.00,WeatherDisplay:10.37,2013-02-08 21:45:00,
2013-02-08 16:50:00,25.2,-3.4,30.05,NNW,337,9.2,9.2,28,0.00,CLR,,0.00,WeatherDisplay:10.37,2013-02-08 21:50:00,
2013-02-08 16:55:00,25.3,-3.3,30.05,NNE,22,9.2,9.2,28,0.00,CLR,,0.00,WeatherDisplay:10.37,2013-02-08 21:55:00,
2013-02-08 17:00:00,25.3,-3.3,30.06,NNW,337,9.2,9.2,28,0.00,CLR,,0.00,WeatherDisplay:10.37,2013-02-08 22:00:00,
2013-02-08 17:05:00,25.3,-3.3,30.05,NNW,337,9.2,9.2,28,0.00,CLR,,0.00,WeatherDisplay:10.37,2013-02-08 22:05:00,
2013-02-08 17:10:00,25.2,-3.4,30.05,North,0,5.9,5.9,28,0.00,CLR,,0.00,WeatherDisplay:10.37,2013-02-08 22:10:00,
2013-02-08 17:15:00,25.7,-3.0,30.05,NNW,337,6.3,6.3,28,0.00,CLR,,0.00,WeatherDisplay:10.37,2013-02-08 22:15:00,
2013-02-08 17:20:00,25.7,-3.0,30.06,NNW,337,6.3,6.3,28,0.00,CLR,,0.00,WeatherDisplay:10.37,2013-02-08 22:20:00,
2013-02-08 17:25:00,25.9,-2.8,30.07,NW,315,6.3,6.3,28,0.00,CLR,,0.00,WeatherDisplay:10.37,2013-02-08 22:25:00,
2013-02-08 17:30:00,25.9,-2.8,30.08,NNE,22,6.3,6.3,28,0.00,CLR,,0.00,WeatherDisplay:10.37,2013-02-08 22:30:00,
2013-02-08 17:35:00,25.7,-3.0,30.08,NNW,337,6.3,6.3,28,0.00,CLR,,0.00,WeatherDisplay:10.37,2013-02-08 22:35:00,
2013-02-08 17:40:00,26.1,-2.7,30.08,NNE,22,6.3,6.3,28,0.00,CLR,,0.00,WeatherDisplay:10.37,2013-02-08 22:40:00,
2013-02-08 17:45:00,22.6,-5.6,30.08,ENE,67,6.3,6.3,28,0.00,CLR,,0.00,WeatherDisplay:10.37,2013-02-08 22:45:00,
2013-02-08 17:50:00,23.2,-5.2,30.09,NNW,337,6.3,6.3,28,0.00,CLR,,0.00,WeatherDisplay:10.37,2013-02-08 22:50:00,
2013-02-08 17:55:00,23.4,-5.0,30.10,North,0,6.9,6.9,28,0.00,CLR,,0.00,WeatherDisplay:10.37,2013-02-08 22:55:00,
2013-02-08 18:00:00,23.7,-4.7,30.11,NNW,337,6.9,6.9,28,0.00,CLR,,0.00,WeatherDisplay:10.37,2013-02-08 23:00:00,
2013-02-08 18:05:00,23.9,-4.5,30.11,NNE,22,6.9,6.9,28,0.00,CLR,,0.00,WeatherDisplay:10.37,2013-02-08 23:05:00,
2013-02-08 18:10:00,24.3,-4.2,30.11,North,0,5.8,5.8,28,0.00,CLR,,0.00,WeatherDisplay:10.37,2013-02-08 23:10:00,
2013-02-08 18:15:00,20.8,-7.2,30.11,NNW,337,5.8,5.8,28,0.00,CLR,,0.00,WeatherDisplay:10.37,2013-02-08 23:15:00,
2013-02-08 18:20:00,21.0,-7.1,30.12,North,0,5.8,5.8,28,0.00,CLR,,0.00,WeatherDisplay:10.37,2013-02-08 23:20:00,
2013-02-08 18:25:00,21.2,-6.9,30.12,NNW,337,5.8,5.8,28,0.00,CLR,,0.00,WeatherDisplay:10.37,2013-02-08 23:25:00,
2013-02-08 18:30:00,21.6,-6.6,30.13,North,0,5.8,5.8,28,0.00,CLR,,0.00,WeatherDisplay:10.37,2013-02-08 23:30:00,
2013-02-08 18:35:00,21.7,-6.4,30.13,NNW,337,5.8,5.8,28,0.00,CLR,,0.00,WeatherDisplay:10.37,2013-02-08 23:35:00,
2013-02-08 18:40:00,21.7,-6.4,30.13,NNW,337,5.8,5.8,28,0.00,CLR,,0.00,WeatherDisplay:10.37,2013-02-08 23:40:00,
2013-02-08 18:45:00,21.9,-6.3,30.12,NNW,337,5.8,5.8,28,0.00,CLR,,0.00,WeatherDisplay:10.37,2013-02-08 23:45:00,
2013-02-08 18:50:00,22.1,-6.1,30.12,NNW,337,5.8,5.8,28,0.00,CLR,,0.00,WeatherDisplay:10.37,2013-02-08 23:50:00,
2013-02-08 18:55:00,22.3,-6.0,30.13,NNW,337,5.8,5.8,28,0.00,CLR,,0.00,WeatherDisplay:10.37,2013-02-08 23:55:00,
2013-02-08 19:00:00,22.3,-6.0,30.13,NNW,337,5.8,5.8,28,0.00,CLR,,0.00,WeatherDisplay:10.37,2013-02-09 00:00:00,
2013-02-08 19:05:00,22.5,-5.8,30.14,NNE,22,5.8,5.8,28,0.00,CLR,,0.00,WeatherDisplay:10.37,2013-02-09 00:05:00,
2013-02-08 19:10:00,19.0,-8.8,30.14,North,0,2.8,2.8,28,0.00,CLR,,0.00,WeatherDisplay:10.37,2013-02-09 00:10:00,
2013-02-08 19:15:00,19.2,-8.6,30.14,North,0,2.8,2.8,28,0.00,CLR,,0.00,WeatherDisplay:10.37,2013-02-09 00:15:00,
2013-02-08 19:20:00,19.2,-8.6,30.13,North,0,2.8,2.8,28,0.00,CLR,,0.00,WeatherDisplay:10.37,2013-02-09 00:20:00,
2013-02-08 19:25:00,19.2,-8.6,30.13,North,0,2.8,2.8,28,0.00,CLR,,0.00,WeatherDisplay:10.37,2013-02-09 00:25:00,
2013-02-08 19:30:00,19.6,-8.3,30.14,North,0,2.8,2.8,28,0.00,CLR,,0.00,WeatherDisplay:10.37,2013-02-09 00:30:00,
2013-02-08 19:35:00,19.9,-8.0,30.14,North,0,2.8,2.8,28,0.00,CLR,,0.00,WeatherDisplay:10.37,2013-02-09 00:35:00,
2013-02-08 19:40:00,20.1,-7.8,30.14,NNW,337,2.8,2.8,28,0.00,CLR,,0.00,WeatherDisplay:10.37,2013-02-09 00:40:00,
2013-02-08 19:45:00,20.3,-7.7,30.14,NNW,337,2.8,2.8,28,0.00,CLR,,0.00,WeatherDisplay:10.37,2013-02-09 00:45:00,
2013-02-08 19:50:00,20.3,-7.7,30.14,North,0,2.8,2.8,28,0.00,CLR,,0.00,WeatherDisplay:10.37,2013-02-09 00:50:00,
2013-02-08 19:55:00,20.5,-7.5,30.13,North,0,2.8,2.8,28,0.00,CLR,,0.00,WeatherDisplay:10.37,2013-02-09 00:55:00,
2013-02-08 20:00:00,20.5,-7.5,30.13,NNW,337,2.8,2.8,28,0.00,CLR,,0.00,WeatherDisplay:10.37,2013-02-09 01:00:00,
2013-02-08 20:05:00,17.2,-10.4,30.13,North,0,2.8,2.8,28,0.00,CLR,,0.00,WeatherDisplay:10.37,2013-02-09 01:05:00,
2013-02-08 20:10:00,17.2,-10.4,30.15,North,0,2.3,2.3,28,0.00,CLR,,0.00,WeatherDisplay:10.37,2013-02-09 01:10:00,
2013-02-08 20:15:00,17.6,-10.0,30.16,North,0,2.3,2.3,28,0.00,CLR,,0.00,WeatherDisplay:10.37,2013-02-09 01:15:00,
2013-02-08 20:20:00,17.6,-10.0,30.15,NNW,337,2.3,2.3,28,0.00,CLR,,0.00,WeatherDisplay:10.37,2013-02-09 01:20:00,
2013-02-08 20:25:00,17.8,-9.9,30.15,NNW,337,2.3,2.3,28,0.00,CLR,,0.00,WeatherDisplay:10.37,2013-02-09 01:25:00,
2013-02-08 20:30:00,17.8,-9.9,30.14,NNW,337,2.6,2.6,28,0.00,CLR,,0.00,WeatherDisplay:10.37,2013-02-09 01:30:00,
2013-02-08 20:35:00,18.0,-9.7,30.15,NNW,337,2.6,2.6,28,0.00,CLR,,0.00,WeatherDisplay:10.37,2013-02-09 01:35:00,
2013-02-08 20:40:00,18.1,-9.6,30.16,NNW,337,2.6,2.6,28,0.00,CLR,,0.00,WeatherDisplay:10.37,2013-02-09 01:40:00,
2013-02-08 20:45:00,18.3,-9.4,30.16,NNW,337,2.6,2.6,28,0.00,CLR,,0.00,WeatherDisplay:10.37,2013-02-09 01:45:00,
2013-02-08 20:50:00,18.3,-9.4,30.17,NW,315,2.6,2.6,28,0.00,CLR,,0.00,WeatherDisplay:10.37,2013-02-09 01:50:00,
2013-02-08 20:55:00,18.5,-9.3,30.17,NNW,337,2.6,0.0,28,0.00,CLR,,0.00,WeatherDisplay:10.37,2013-02-09 01:55:00,
2013-02-08 21:00:00,18.7,-9.1,30.16,NE,45,2.6,2.6,28,0.00,CLR,,0.00,WeatherDisplay:10.37,2013-02-09 02:00:00,
2013-02-08 21:05:00,18.7,-9.1,30.16,NNE,22,2.6,2.6,28,0.00,CLR,,0.00,WeatherDisplay:10.37,2013-02-09 02:05:00,
2013-02-08 21:10:00,18.7,-9.1,30.17,NNE,22,2.3,2.3,28,0.00,CLR,,0.00,WeatherDisplay:10.37,2013-02-09 02:10:00,
2013-02-08 21:15:00,18.7,-9.1,30.18,North,0,2.3,2.3,28,0.00,CLR,,0.00,WeatherDisplay:10.37,2013-02-09 02:15:00,
2013-02-08 21:20:00,18.5,-9.3,30.18,NNE,22,2.6,2.6,28,0.00,CLR,,0.00,WeatherDisplay:10.37,2013-02-09 02:20:00,
2013-02-08 21:25:00,18.7,-9.1,30.18,ENE,67,2.6,2.6,28,0.00,CLR,,0.00,WeatherDisplay:10.37,2013-02-09 02:25:00,
2013-02-08 21:30:00,18.7,-9.1,30.18,ENE,67,2.6,0.0,28,0.00,CLR,,0.00,WeatherDisplay:10.37,2013-02-09 02:30:00,
2013-02-08 21:35:00,15.4,-11.9,30.17,WNW,292,2.6,0.0,28,0.00,CLR,,0.00,WeatherDisplay:10.37,2013-02-09 02:35:00,
2013-02-08 21:40:00,16.0,-11.5,30.18,West,270,2.6,2.6,28,0.00,CLR,,0.00,WeatherDisplay:10.37,2013-02-09 02:40:00,
2013-02-08 21:45:00,16.2,-11.3,30.19,West,270,2.6,0.0,28,0.00,CLR,,0.00,WeatherDisplay:10.37,2013-02-09 02:45:00,
2013-02-08 21:50:00,16.2,-11.3,30.20,NW,315,2.6,0.0,28,0.00,CLR,,0.00,WeatherDisplay:10.37,2013-02-09 02:50:00,
2013-02-08 21:55:00,16.2,-11.3,30.20,NNW,337,2.6,2.6,28,0.00,CLR,,0.00,WeatherDisplay:10.37,2013-02-09 02:55:00,
2013-02-08 22:00:00,16.2,-11.3,30.20,NW,315,2.6,2.6,28,0.00,CLR,,0.00,WeatherDisplay:10.37,2013-02-09 03:00:00,
2013-02-08 22:05:00,15.8,-11.6,30.19,NNW,337,2.3,2.3,28,0.00,CLR,,0.00,WeatherDisplay:10.37,2013-02-09 03:05:00,
2013-02-08 22:10:00,15.4,-11.9,30.18,NNW,337,2.4,2.4,28,0.00,CLR,,0.00,WeatherDisplay:10.37,2013-02-09 03:10:00,
2013-02-08 22:15:00,18.7,-9.1,30.19,NNW,337,2.4,2.4,28,0.00,CLR,,0.00,WeatherDisplay:10.37,2013-02-09 03:15:00,
2013-02-08 22:20:00,18.7,-9.1,30.20,NW,315,2.4,2.4,28,0.00,CLR,,0.00,WeatherDisplay:10.37,2013-02-09 03:20:00,
2013-02-08 22:25:00,18.5,-9.3,30.20,North,0,3.5,3.5,28,0.00,CLR,,0.00,WeatherDisplay:10.37,2013-02-09 03:25:00,
2013-02-08 22:30:00,18.5,-9.3,30.19,North,0,3.5,3.5,28,0.00,CLR,,0.00,WeatherDisplay:10.37,2013-02-09 03:30:00,
2013-02-08 22:35:00,18.5,-9.3,30.19,NNW,337,3.6,3.6,28,0.00,CLR,,0.00,WeatherDisplay:10.37,2013-02-09 03:35:00,
2013-02-08 22:40:00,18.7,-9.1,30.18,NNW,337,3.6,3.6,28,0.00,CLR,,0.00,WeatherDisplay:10.37,2013-02-09 03:40:00,
2013-02-08 22:45:00,18.9,-8.9,30.18,North,0,3.6,3.6,28,0.00,CLR,,0.00,WeatherDisplay:10.37,2013-02-09 03:45:00,
2013-02-08 22:50:00,18.9,-8.9,30.19,NNW,337,3.6,3.6,28,0.00,CLR,,0.00,WeatherDisplay:10.37,2013-02-09 03:50:00,
2013-02-08 22:55:00,18.9,-8.9,30.20,NNW,337,3.6,3.6,28,0.00,CLR,,0.00,WeatherDisplay:10.37,2013-02-09 03:55:00,
2013-02-08 23:00:00,15.4,-11.9,30.21,NNW,337,3.6,0.0,28,0.00,CLR,,0.00,WeatherDisplay:10.37,2013-02-09 04:00:00,
2013-02-08 23:05:00,15.6,-11.8,30.21,NNW,337,3.6,3.6,28,0.00,CLR,,0.00,WeatherDisplay:10.37,2013-02-09 04:05:00,
2013-02-08 23:10:00,15.6,-11.8,30.20,NNW,337,1.7,1.7,28,0.00,CLR,,0.00,WeatherDisplay:10.37,2013-02-09 04:10:00,
2013-02-08 23:15:00,15.8,-11.6,30.19,NW,315,1.7,1.7,28,0.00,CLR,,0.00,WeatherDisplay:10.37,2013-02-09 04:15:00,
2013-02-08 23:20:00,15.8,-11.6,30.19,North,0,1.7,1.7,28,0.00,CLR,,0.00,WeatherDisplay:10.37,2013-02-09 04:20:00,
2013-02-08 23:25:00,15.8,-11.6,30.20,NW,315,1.7,0.0,28,0.00,CLR,,0.00,WeatherDisplay:10.37,2013-02-09 04:25:00,
2013-02-08 23:30:00,15.8,-11.6,30.20,NW,315,2.3,2.3,28,0.00,CLR,,0.00,WeatherDisplay:10.37,2013-02-09 04:30:00,
2013-02-08 23:35:00,16.0,-11.5,30.21,NW,315,2.3,2.3,28,0.00,CLR,,0.00,WeatherDisplay:10.37,2013-02-09 04:35:00,
2013-02-08 23:40:00,16.0,-11.5,30.22,WNW,292,2.8,2.8,28,0.00,CLR,,0.00,WeatherDisplay:10.37,2013-02-09 04:40:00,
2013-02-08 23:45:00,16.0,-11.5,30.22,NNW,337,2.8,2.8,28,0.00,CLR,,0.00,WeatherDisplay:10.37,2013-02-09 04:45:00,
2013-02-08 23:50:00,16.0,-11.5,30.21,NNW,337,2.8,2.8,28,0.00,CLR,,0.00,WeatherDisplay:10.37,2013-02-09 04:50:00,
2013-02-08 23:55:00,16.2,-11.3,30.20,North,0,2.8,2.8,28,0.00,CLR,,0.00,WeatherDisplay:10.37,2013-02-09 04:55:00,